Showamaru No.1 — JK5504 — position and weather

sailwx.info

Track history (hours):
 
Tides and Currents Weather Stations Pressure Air Temp Water Temp Dewpoint Dewpoint Depression Visibility Wind Speed Wind Dir Waves Ship Positions

Showamaru No.1

Last reported at 2018-Jun-23 00:28 UTC. Time now 2018-Jun-24 01:42 UTC.
Position N 34°14' E 134°42'.

Length 74 m.

Type: Cargo ship. MMSI: 431400585.

Date/timePositionNaut miles runAvg speedWind from/ knotsBaromVisibWave heightAir tempDewpointWater temp
2018-Jun-23 00:28N 34°14' E 134°42'0 0.0
2018-Jun-22 23:58N 34°14' E 134°42'0 0.0
2018-Jun-22 23:28N 34°14' E 134°42'21 0.5
2018-Jun-21 08:22N 33°57' E 134°57'410.7
2018-Jun-21 07:59N 33°59' E 134°53'510.9
2018-Jun-21 07:30N 34°03' E 134°49'  
2018-Jun-16 08:01N 34°28' E 134°30'012.8
2018-Jun-16 08:00N 34°28' E 134°30'911.4
2018-Jun-16 07:12N 34°31' E 134°41'310.9
2018-Jun-16 06:57N 34°32' E 134°44'10 9.6
2018-Jun-16 05:54N 34°36' E 134°55'8 8.2
2018-Jun-16 04:55N 34°36' E 135°05'511.1
2018-Jun-16 04:28N 34°36' E 135°11'712.2
2018-Jun-16 03:54N 34°37' E 135°19'512.0
2018-Jun-16 03:30N 34°39' E 135°24'3 5.3
2018-Jun-16 02:58N 34°39' E 135°28'0 0.0
2018-Jun-16 02:28N 34°39' E 135°28'0 0.0
2018-Jun-16 01:58N 34°39' E 135°28'0 0.0
2018-Jun-16 01:22N 34°39' E 135°28'0 0.0
2018-Jun-16 00:58N 34°39' E 135°28'0 0.3
2018-Jun-16 00:28N 34°39' E 135°28'3 7.2
2018-Jun-16 00:00N 34°38' E 135°24'711.0
2018-Jun-15 23:22N 34°33' E 135°18'511.2
2018-Jun-15 22:55N 34°29' E 135°14'510.6
2018-Jun-15 22:29N 34°26' E 135°11'510.7
2018-Jun-15 22:00N 34°22' E 135°07'611.1
2018-Jun-15 21:30N 34°17' E 135°03'  
Track history (hours):
 
Tides and Currents Weather Stations Pressure Air Temp Water Temp Dewpoint Dewpoint Depression Visibility Wind Speed Wind Dir Waves Ship Positions

Showamaru No.1

Last reported at 2018-Jun-23 00:28 UTC. Time now 2018-Jun-24 01:42 UTC.
Position N 34°14' E 134°42'.

Length 74 m.

Type: Cargo ship. MMSI: 431400585.

Date/timePositionNaut miles runAvg speedWind from/ knotsBaromVisibWave heightAir tempDewpointWater temp
2018-Jun-23 00:28N 34°14' E 134°42'0 0.0
2018-Jun-22 23:58N 34°14' E 134°42'0 0.0
2018-Jun-22 23:28N 34°14' E 134°42'21 0.5
2018-Jun-21 08:22N 33°57' E 134°57'410.7
2018-Jun-21 07:59N 33°59' E 134°53'510.9
2018-Jun-21 07:30N 34°03' E 134°49'  
2018-Jun-16 08:01N 34°28' E 134°30'012.8
2018-Jun-16 08:00N 34°28' E 134°30'911.4
2018-Jun-16 07:12N 34°31' E 134°41'310.9
2018-Jun-16 06:57N 34°32' E 134°44'10 9.6
2018-Jun-16 05:54N 34°36' E 134°55'8 8.2
2018-Jun-16 04:55N 34°36' E 135°05'511.1
2018-Jun-16 04:28N 34°36' E 135°11'712.2
2018-Jun-16 03:54N 34°37' E 135°19'512.0
2018-Jun-16 03:30N 34°39' E 135°24'3 5.3
2018-Jun-16 02:58N 34°39' E 135°28'0 0.0
2018-Jun-16 02:28N 34°39' E 135°28'0 0.0
2018-Jun-16 01:58N 34°39' E 135°28'0 0.0
2018-Jun-16 01:22N 34°39' E 135°28'0 0.0
2018-Jun-16 00:58N 34°39' E 135°28'0 0.3
2018-Jun-16 00:28N 34°39' E 135°28'3 7.2
2018-Jun-16 00:00N 34°38' E 135°24'711.0
2018-Jun-15 23:22N 34°33' E 135°18'511.2
2018-Jun-15 22:55N 34°29' E 135°14'510.6
2018-Jun-15 22:29N 34°26' E 135°11'510.7
2018-Jun-15 22:00N 34°22' E 135°07'611.1
2018-Jun-15 21:30N 34°17' E 135°03'  

Dump ship's entire track history